Terminal Aerodrome Forecast
Issued by NWS Charleston, SC

Home | Current Version | Previous Version | Text Only | Print | Product List | Glossary On
Versions: 1 2 3 4 5 6 7 8 9 10 11 12 13 14
156
FTUS42 KCHS 262320
TAFCHS
TAF
KCHS 262320Z 2700/2724 11008KT P6SM SKC
     FM270200 VRB03KT P6SM FEW025
     FM271600 11010G16KT P6SM SCT050=

USA.gov is the U.S. government's official web portal to all federal, state and local government web resources and services.